Time;durP1;ratioP1;P1;durP2;ratioP2;P2;SDS_P1;SDS_P2;PMS_P1;PMS_P2;Temp;Humidity;BMP_temperature;BMP_pressure;BME280_temperature;BME280_humidity;BME280_pressure;Samples;Min_cycle;Max_cycle;Signal;HPM_P1;HPM_P2
2021/05/23 04:10:15;;;;;;;0.60;0.60;;;12.10;95.40;;;;;;6018883;23;20219;31
2021/05/23 04:12:45;;;;;;;0.60;0.60;;;12.10;95.70;;;;;;4914076;29;20297;-73
2021/05/23 04:15:14;;;;;;;0.50;0.50;;;12.20;95.70;;;;;;4915718;29;20214;-73
2021/05/23 04:17:41;;;;;;;0.50;0.50;;;12.10;95.70;;;;;;4916063;29;20261;-73
2021/05/23 04:20:13;;;;;;;0.60;0.60;;;12.20;95.60;;;;;;4915877;29;20582;-73
2021/05/23 04:22:41;;;;;;;0.60;0.60;;;12.30;95.30;;;;;;4896800;29;20683;-72
2021/05/23 04:25:13;;;;;;;0.70;0.70;;;12.30;95.10;;;;;;4946896;23;20220;-77
2021/05/23 04:27:42;;;;;;;0.70;0.70;;;12.40;95.00;;;;;;4978093;28;20224;-77
2021/05/23 04:30:11;;;;;;;0.70;0.70;;;12.50;94.90;;;;;;4978867;28;20271;-78
2021/05/23 04:32:38;;;;;;;0.60;0.60;;;12.60;95.00;;;;;;4978870;28;20212;-77
2021/05/23 04:35:07;;;;;;;0.60;0.60;;;12.40;99.90;;;;;;4978633;28;20225;-77
2021/05/23 04:37:35;;;;;;;0.65;0.65;;;12.60;94.90;;;;;;4979551;28;20571;-78
2021/05/23 04:40:04;;;;;;;0.60;0.60;;;12.60;94.70;;;;;;4978620;28;20235;-77
2021/05/23 04:42:31;;;;;;;0.50;0.50;;;12.70;94.80;;;;;;4978896;28;20609;-77
2021/05/23 04:45:20;;;;;;;0.68;0.68;;;12.70;94.60;;;;;;4976789;28;20651;-77
2021/05/23 04:47:47;;;;;;;0.60;0.60;;;12.70;94.70;;;;;;4976881;28;20224;-78
2021/05/23 04:50:15;;;;;;;0.60;0.60;;;12.80;94.50;;;;;;4976192;28;20255;-77
2021/05/23 04:52:43;;;;;;;0.60;0.60;;;12.70;94.30;;;;;;4976335;28;20259;-78
2021/05/23 04:55:11;;;;;;;0.60;0.60;;;12.80;94.30;;;;;;4976821;28;20233;-76
2021/05/23 04:57:38;;;;;;;0.60;0.60;;;12.90;94.00;;;;;;4979204;28;20548;-77
2021/05/23 05:00:09;;;;;;;0.50;0.50;;;13.10;94.00;;;;;;4982403;28;20736;-77
2021/05/23 05:02:38;;;;;;;0.70;0.70;;;13.10;93.70;;;;;;4982143;28;20563;-78
2021/05/23 05:05:07;;;;;;;0.50;0.50;;;13.20;93.30;;;;;;4981306;28;20705;-77
2021/05/23 05:07:35;;;;;;;0.50;0.50;;;13.30;93.30;;;;;;4981088;28;20216;-78
2021/05/23 05:10:04;;;;;;;0.60;0.60;;;13.40;93.20;;;;;;4981170;28;20209;-77
2021/05/23 05:12:31;;;;;;;0.60;0.60;;;13.50;93.30;;;;;;4981769;28;20201;-77
2021/05/23 05:14:58;;;;;;;0.60;0.60;;;13.60;93.10;;;;;;4982120;28;20733;-78
2021/05/23 05:17:26;;;;;;;0.60;0.60;;;13.70;92.40;;;;;;4981812;28;20200;-77
2021/05/23 05:19:54;;;;;;;0.50;0.50;;;14.00;99.00;;;;;;4981833;28;20236;-77
2021/05/23 05:22:22;;;;;;;0.60;0.60;;;13.90;92.80;;;;;;4982172;28;20629;-78
2021/05/23 05:24:49;;;;;;;0.50;0.50;;;14.10;92.10;;;;;;4981347;28;20299;-77
2021/05/23 05:27:19;;;;;;;0.60;0.60;;;14.10;91.40;;;;;;4980865;28;20219;-78
2021/05/23 05:29:46;;;;;;;0.60;0.60;;;14.20;91.50;;;;;;4980818;28;20212;-77
2021/05/23 05:32:14;;;;;;;0.50;0.50;;;14.20;91.10;;;;;;4980061;28;20565;-76
2021/05/23 05:34:41;;;;;;;0.50;0.50;;;14.40;91.40;;;;;;4979858;28;20283;-78
2021/05/23 05:37:10;;;;;;;0.60;0.60;;;14.50;91.00;;;;;;4980180;28;20670;-78
2021/05/23 05:39:37;;;;;;;0.40;0.40;;;14.50;90.70;;;;;;4979213;28;20393;-78
2021/05/23 05:42:05;;;;;;;0.40;0.40;;;14.50;90.70;;;;;;4979599;28;20200;-77
2021/05/23 05:44:32;;;;;;;0.50;0.50;;;14.70;96.70;;;;;;4979293;28;20201;-77
2021/05/23 05:47:00;;;;;;;0.40;0.40;;;14.60;90.50;;;;;;4978608;28;20259;-76
2021/05/23 05:49:27;;;;;;;0.50;0.50;;;14.60;90.30;;;;;;4982656;28;20229;-76
2021/05/23 05:51:54;;;;;;;0.50;0.50;;;14.60;90.60;;;;;;4987407;28;20235;-77
2021/05/23 05:54:23;;;;;;;0.50;0.50;;;14.50;96.20;;;;;;4979101;28;20251;-77
2021/05/23 05:56:50;;;;;;;0.50;0.50;;;14.60;90.00;;;;;;4979581;28;20209;-77
2021/05/23 05:59:37;;;;;;;0.40;0.40;;;14.80;90.10;;;;;;4979350;28;20292;-78
2021/05/23 06:02:06;;;;;;;0.50;0.50;;;14.80;89.80;;;;;;4979342;28;20673;-77
2021/05/23 06:04:33;;;;;;;0.50;0.50;;;14.50;95.70;;;;;;4977989;28;20204;-78
2021/05/23 06:07:00;;;;;;;0.40;0.40;;;14.70;89.10;;;;;;4977338;28;20673;-77
2021/05/23 06:09:28;;;;;;;0.50;0.50;;;14.70;89.60;;;;;;4960687;28;20201;-77
2021/05/23 06:11:56;;;;;;;0.40;0.40;;;14.90;88.20;;;;;;4959726;29;20209;-78
2021/05/23 06:14:23;;;;;;;0.60;0.60;;;14.60;95.70;;;;;;4959446;29;20780;-77
2021/05/23 06:16:52;;;;;;;0.40;0.40;;;14.80;89.10;;;;;;4960027;29;20205;-78
2021/05/23 06:19:20;;;;;;;0.40;0.40;;;14.90;88.90;;;;;;4959724;29;20212;-78
2021/05/23 06:21:47;;;;;;;0.50;0.50;;;14.80;88.90;;;;;;4960330;28;20205;-77
2021/05/23 06:24:15;;;;;;;0.50;0.50;;;14.80;88.80;;;;;;4959854;29;20673;-77
2021/05/23 06:26:44;;;;;;;0.50;0.50;;;14.90;88.10;;;;;;4959613;28;20308;-77
2021/05/23 06:29:11;;;;;;;0.55;0.55;;;14.90;87.70;;;;;;4959885;28;20221;-77
2021/05/23 06:31:39;;;;;;;0.55;0.55;;;15.00;87.80;;;;;;4960626;29;20205;-78
2021/05/23 06:34:06;;;;;;;0.50;0.50;;;15.00;88.30;;;;;;4960542;28;20209;-77
2021/05/23 06:36:33;;;;;;;0.50;0.50;;;15.10;87.20;;;;;;4959447;29;20305;-78
2021/05/23 06:39:01;;;;;;;0.40;0.40;;;15.10;87.30;;;;;;4960510;28;20201;-77
2021/05/23 06:41:28;;;;;;;0.50;0.50;;;15.10;87.30;;;;;;4960126;29;20256;-78
2021/05/23 06:43:56;;;;;;;0.50;0.50;;;15.20;87.90;;;;;;4960016;29;20205;-77
2021/05/23 06:46:24;;;;;;;0.50;0.50;;;15.30;87.00;;;;;;4960079;28;20229;-78
2021/05/23 06:48:51;;;;;;;0.40;0.40;;;15.50;85.70;;;;;;4965544;28;20294;-77
2021/05/23 06:51:19;;;;;;;0.40;0.40;;;15.50;86.00;;;;;;4977636;28;20212;-78
2021/05/23 06:53:48;;;;;;;0.40;0.40;;;15.60;85.90;;;;;;4980128;28;20257;-78
2021/05/23 06:56:16;;;;;;;0.50;0.50;;;15.40;85.80;;;;;;4978896;28;20233;-78
2021/05/23 06:58:44;;;;;;;0.40;0.40;;;15.40;87.40;;;;;;4977761;28;20279;-76
2021/05/23 07:01:14;;;;;;;0.50;0.50;;;15.40;86.70;;;;;;4977879;28;20563;-76
2021/05/23 07:03:42;;;;;;;0.40;0.40;;;15.50;87.00;;;;;;4976720;28;20263;-76
2021/05/23 07:06:10;;;;;;;0.40;0.40;;;15.50;86.60;;;;;;4977547;28;20221;-78
2021/05/23 07:08:37;;;;;;;0.40;0.40;;;15.40;86.20;;;;;;4977138;28;20608;-77
2021/05/23 07:11:05;;;;;;;0.52;0.52;;;15.50;86.90;;;;;;4978087;28;20200;-77
2021/05/23 07:13:33;;;;;;;0.50;0.50;;;15.50;87.60;;;;;;4981662;28;20208;-78
2021/05/23 07:16:01;;;;;;;0.40;0.40;;;15.60;86.70;;;;;;4977709;28;20726;-77
2021/05/23 07:18:29;;;;;;;0.40;0.40;;;15.60;86.50;;;;;;4977861;28;20307;-79
2021/05/23 07:20:59;;;;;;;0.50;0.50;;;15.50;87.10;;;;;;4986687;28;20209;-77
2021/05/23 07:23:27;;;;;;;0.40;0.40;;;15.50;86.60;;;;;;4987755;28;20239;-78
2021/05/23 07:25:55;;;;;;;0.50;0.50;;;15.30;94.60;;;;;;4983623;28;20709;-72
2021/05/23 07:28:23;;;;;;;0.40;0.40;;;15.50;86.70;;;;;;4981838;28;20228;-77
2021/05/23 07:30:51;;;;;;;0.50;0.50;;;15.50;86.40;;;;;;4980986;28;20238;-78
2021/05/23 07:33:18;;;;;;;0.50;0.50;;;15.60;86.80;;;;;;4969263;28;20213;-78
2021/05/23 07:35:47;;;;;;;0.50;0.50;;;15.70;87.10;;;;;;4963147;28;20284;-79
2021/05/23 07:38:14;;;;;;;0.40;0.40;;;15.80;87.00;;;;;;4960179;29;20210;-77
2021/05/23 07:40:42;;;;;;;0.50;0.50;;;15.90;86.70;;;;;;4958651;29;20268;-77
2021/05/23 07:43:09;;;;;;;0.52;0.52;;;15.80;87.00;;;;;;4956673;29;20205;-78
2021/05/23 07:45:36;;;;;;;0.50;0.50;;;15.70;94.80;;;;;;4955702;28;20232;-76
2021/05/23 07:48:05;;;;;;;0.40;0.40;;;15.80;87.10;;;;;;4956148;29;20225;-79
2021/05/23 07:50:32;;;;;;;0.45;0.45;;;15.90;94.40;;;;;;4960402;28;20264;-80
2021/05/23 07:53:01;;;;;;;0.40;0.40;;;16.00;86.10;;;;;;4956752;29;20209;-77
2021/05/23 07:55:28;;;;;;;0.50;0.50;;;16.10;86.10;;;;;;4957985;28;20232;-78
2021/05/23 07:57:56;;;;;;;0.40;0.40;;;16.00;85.10;;;;;;4958869;29;20228;-77
2021/05/23 08:00:23;;;;;;;0.50;0.50;;;16.00;84.20;;;;;;4964721;29;20257;-75
2021/05/23 08:02:51;;;;;;;0.50;0.50;;;15.20;83.70;;;;;;4954040;29;20623;-78
2021/05/23 08:05:18;;;;;;;0.40;0.40;;;16.10;83.90;;;;;;4953263;28;20292;-77
2021/05/23 08:07:45;;;;;;;0.40;0.40;;;15.90;93.00;;;;;;4954284;29;20478;-77
2021/05/23 08:10:14;;;;;;;0.40;0.40;;;16.00;82.80;;;;;;4956769;29;20261;-78
2021/05/23 08:12:42;;;;;;;0.40;0.40;;;16.10;83.20;;;;;;4954532;28;20212;-76
2021/05/23 08:15:12;;;;;;;0.40;0.40;;;16.10;83.30;;;;;;4955415;28;20261;-76
2021/05/23 08:17:40;;;;;;;0.50;0.50;;;16.10;83.90;;;;;;4956550;29;20205;-77
2021/05/23 08:20:09;;;;;;;0.50;0.50;;;16.00;84.30;;;;;;4954541;28;20205;-76
2021/05/23 08:22:37;;;;;;;0.40;0.40;;;16.20;84.00;;;;;;4954389;29;20201;-76
2021/05/23 08:25:06;;;;;;;0.50;0.50;;;16.10;83.60;;;;;;4954557;28;20236;-78
2021/05/23 08:27:35;;;;;;;0.45;0.45;;;16.10;82.90;;;;;;4954348;29;20733;-77
2021/05/23 08:30:03;;;;;;;0.40;0.40;;;16.30;82.70;;;;;;4955635;29;20714;-77
2021/05/23 08:32:34;;;;;;;0.30;0.30;;;16.30;83.20;;;;;;4959561;28;20666;-78
2021/05/23 08:35:02;;;;;;;0.40;0.40;;;16.70;92.80;;;;;;4958817;28;20232;-78
2021/05/23 08:37:29;;;;;;;0.50;0.50;;;16.60;80.50;;;;;;4961603;29;20729;-78
2021/05/23 08:39:57;;;;;;;0.40;0.40;;;16.70;80.30;;;;;;4961345;29;20197;-77
2021/05/23 08:42:24;;;;;;;0.40;0.40;;;16.70;80.50;;;;;;4960526;29;20205;-78
2021/05/23 08:44:53;;;;;;;0.40;0.40;;;16.80;80.00;;;;;;4962756;28;20233;-78
2021/05/23 08:47:21;;;;;;;0.30;0.30;;;16.60;80.00;;;;;;4963459;29;20212;-77
2021/05/23 08:49:51;;;;;;;0.50;0.50;;;16.60;79.60;;;;;;4963745;29;20698;-78
2021/05/23 08:52:18;;;;;;;0.30;0.30;;;16.80;80.00;;;;;;4963564;29;20241;-78
2021/05/23 08:54:48;;;;;;;0.40;0.40;;;16.90;79.70;;;;;;4964079;28;20276;-77
2021/05/23 08:57:22;;;;;;;0.40;0.40;;;16.70;80.50;;;;;;4963134;28;20585;-77
2021/05/23 08:59:49;;;;;;;0.40;0.40;;;16.50;79.90;;;;;;4963009;29;20205;-78
2021/05/23 09:02:18;;;;;;;0.47;0.47;;;16.60;80.30;;;;;;4963072;29;20216;-77
2021/05/23 09:04:50;;;;;;;0.40;0.40;;;16.60;80.50;;;;;;4963866;28;20229;-78
2021/05/23 09:07:18;;;;;;;0.30;0.30;;;16.50;79.80;;;;;;4963241;29;20205;-77
2021/05/23 09:09:47;;;;;;;0.40;0.40;;;16.60;81.30;;;;;;4964416;28;20229;-78
2021/05/23 09:12:16;;;;;;;0.40;0.40;;;16.80;79.90;;;;;;4963593;29;20209;-78
2021/05/23 09:14:45;;;;;;;0.40;0.40;;;16.80;80.00;;;;;;4963022;28;20225;-78
2021/05/23 09:17:22;;;;;;;0.40;0.40;;;16.90;81.20;;;;;;4963300;29;20663;-78
2021/05/23 09:19:50;;;;;;;0.40;0.40;;;17.10;78.00;;;;;;4963318;29;20197;-78
2021/05/23 09:22:19;;;;;;;0.50;0.50;;;17.40;77.50;;;;;;4962908;29;20248;-76
2021/05/23 09:24:51;;;;;;;0.40;0.40;;;;;;;;;;4961771;28;20233;-78
2021/05/23 09:27:19;;;;;;;0.30;0.30;;;18.00;76.40;;;;;;4962974;29;20229;-78
2021/05/23 09:29:47;;;;;;;0.40;0.40;;;17.70;76.60;;;;;;4962461;29;20703;-77
2021/05/23 09:32:16;;;;;;;0.30;0.30;;;17.70;78.10;;;;;;4962566;29;20205;-77
2021/05/23 09:34:49;;;;;;;0.40;0.40;;;17.70;76.00;;;;;;4959505;28;20225;-76
2021/05/23 09:37:17;;;;;;;0.40;0.40;;;17.70;76.40;;;;;;4957078;28;20271;-77
2021/05/23 09:39:44;;;;;;;0.40;0.40;;;17.50;77.20;;;;;;4956975;29;20666;-77
2021/05/23 09:42:13;;;;;;;0.50;0.50;;;17.20;77.10;;;;;;4956999;29;20206;-76
2021/05/23 09:44:42;;;;;;;0.40;0.40;;;17.40;78.00;;;;;;4956149;28;20284;-77
2021/05/23 09:47:11;;;;;;;0.40;0.40;;;17.60;78.50;;;;;;4957114;29;20213;-77
2021/05/23 09:49:50;;;;;;;0.40;0.40;;;17.80;76.70;;;;;;4956982;29;20232;-77
2021/05/23 09:52:30;;;;;;;0.50;0.50;;;18.00;73.40;;;;;;4957410;29;20268;-77
2021/05/23 09:54:59;;;;;;;0.40;0.40;;;18.00;74.50;;;;;;4956789;28;20702;-76
2021/05/23 09:57:28;;;;;;;0.40;0.40;;;17.90;74.10;;;;;;4956766;29;20284;-77
2021/05/23 09:59:59;;;;;;;0.40;0.40;;;17.90;74.00;;;;;;4956894;29;20201;-77
2021/05/23 10:02:26;;;;;;;0.30;0.30;;;17.70;73.50;;;;;;4957035;29;20205;-76
2021/05/23 10:05:12;;;;;;;0.40;0.40;;;17.70;73.70;;;;;;4956237;28;20225;-77
2021/05/23 10:07:40;;;;;;;0.40;0.40;;;17.60;74.50;;;;;;4958398;28;20256;-77
2021/05/23 10:10:09;;;;;;;0.40;0.40;;;17.60;73.10;;;;;;4966507;29;20224;-77
2021/05/23 10:12:37;;;;;;;0.30;0.30;;;17.60;74.10;;;;;;4958288;29;20276;-77
2021/05/23 10:15:06;;;;;;;0.40;0.40;;;17.70;74.70;;;;;;4958624;28;20221;-74
2021/05/23 10:17:53;;;;;;;0.50;0.50;;;17.30;74.60;;;;;;4957649;29;20685;-77
2021/05/23 10:20:22;;;;;;;0.30;0.30;;;17.40;75.40;;;;;;4958276;29;20248;-76
2021/05/23 10:22:50;;;;;;;0.40;0.40;;;17.70;74.30;;;;;;4957527;28;20229;-76
2021/05/23 10:25:18;;;;;;;0.40;0.40;;;18.00;75.40;;;;;;4959619;28;20241;-78
2021/05/23 10:27:47;;;;;;;0.30;0.30;;;18.30;71.80;;;;;;4976552;28;20219;-76
2021/05/23 10:30:15;;;;;;;0.30;0.30;;;18.30;71.20;;;;;;4959363;28;20213;-76
2021/05/23 10:32:43;;;;;;;0.40;0.40;;;18.20;72.10;;;;;;4975144;28;20617;-77
2021/05/23 10:35:16;;;;;;;0.40;0.40;;;18.00;71.10;;;;;;4973454;28;20320;-75
2021/05/23 10:37:46;;;;;;;0.30;0.30;;;17.80;72.40;;;;;;4973097;28;20209;-77
2021/05/23 10:40:19;;;;;;;0.30;0.30;;;18.10;72.10;;;;;;4975084;28;20201;-75
2021/05/23 10:42:52;;;;;;;0.40;0.40;;;18.30;71.50;;;;;;4974816;28;20307;-76
2021/05/23 10:45:27;;;;;;;0.32;0.32;;;18.50;71.90;;;;;;4974535;28;20720;-75
2021/05/23 10:47:56;;;;;;;0.30;0.30;;;18.40;72.90;;;;;;4974634;28;20295;-75
2021/05/23 10:50:34;;;;;;;0.40;0.40;;;18.30;72.20;;;;;;4974536;28;20224;-75
2021/05/23 10:53:03;;;;;;;0.30;0.30;;;18.00;73.20;;;;;;4974560;28;20492;-76
2021/05/23 10:55:31;;;;;;;0.40;0.40;;;17.80;74.20;;;;;;4973210;28;20229;-75
2021/05/23 10:57:59;;;;;;;0.30;0.30;;;17.70;73.80;;;;;;4974476;28;20209;-76
2021/05/23 11:00:28;;;;;;;0.30;0.30;;;17.80;74.00;;;;;;4974292;28;20208;-76
2021/05/23 11:03:10;;;;;;;0.30;0.30;;;17.80;74.60;;;;;;4974539;28;20205;-76
2021/05/23 11:05:38;;;;;;;0.40;0.40;;;18.20;74.00;;;;;;4974241;28;20638;-76
2021/05/23 11:08:08;;;;;;;0.40;0.40;;;18.30;72.50;;;;;;4974499;28;20640;-76
2021/05/23 11:10:40;;;;;;;0.40;0.40;;;18.30;71.30;;;;;;4974177;28;20307;-75
2021/05/23 11:13:09;;;;;;;0.40;0.40;;;18.20;67.40;;;;;;4974131;28;20212;-74
2021/05/23 11:15:41;;;;;;;0.30;0.30;;;18.20;69.00;;;;;;4974223;28;20627;-75
2021/05/23 11:18:10;;;;;;;0.40;0.40;;;18.00;70.10;;;;;;4973946;28;20676;-75
2021/05/23 11:20:42;;;;;;;0.40;0.40;;;17.90;70.50;;;;;;4973074;28;20200;-76
2021/05/23 11:23:09;;;;;;;0.30;0.30;;;18.00;70.20;;;;;;4973638;28;20215;-76
2021/05/23 11:25:38;;;;;;;0.40;0.40;;;17.90;69.90;;;;;;4972213;28;20232;-77
2021/05/23 11:28:07;;;;;;;0.30;0.30;;;17.90;71.90;;;;;;4973969;28;20627;-76
2021/05/23 11:30:36;;;;;;;0.30;0.30;;;17.80;72.80;;;;;;4974664;28;20221;-76
2021/05/23 11:33:06;;;;;;;0.40;0.40;;;17.90;72.40;;;;;;4974536;28;20212;-76
2021/05/23 11:35:36;;;;;;;0.40;0.40;;;17.70;73.20;;;;;;4974062;28;20636;-76
2021/05/23 11:38:05;;;;;;;0.40;0.40;;;17.60;74.60;;;;;;4989233;28;20185;-77
2021/05/23 11:40:40;;;;;;;0.50;0.50;;;17.70;73.90;;;;;;4974987;28;20192;-78
2021/05/23 11:43:13;;;;;;;0.40;0.40;;;17.90;73.00;;;;;;4973904;28;20208;-77
2021/05/23 11:45:53;;;;;;;0.40;0.40;;;17.50;76.50;;;;;;4973830;28;20299;-76
2021/05/23 11:48:31;;;;;;;0.40;0.40;;;17.00;79.30;;;;;;4973918;28;20188;-76
2021/05/23 11:50:59;;;;;;;0.50;0.50;;;16.90;81.20;;;;;;4973501;28;20275;-75
2021/05/23 11:53:41;;;;;;;0.50;0.50;;;16.70;81.90;;;;;;4973740;28;20205;-76
2021/05/23 11:56:13;;;;;;;0.50;0.50;;;16.60;82.10;;;;;;4973317;28;20232;-76
2021/05/23 11:58:45;;;;;;;0.50;0.50;;;16.30;86.40;;;;;;4973816;28;20226;-76
2021/05/23 12:01:15;;;;;;;0.57;0.57;;;15.70;90.70;;;;;;4973648;28;20657;-76
2021/05/23 12:03:53;;;;;;;0.57;0.57;;;15.00;92.10;;;;;;4974321;28;20200;-76
2021/05/23 12:06:20;;;;;;;0.60;0.60;;;14.60;97.10;;;;;;4972852;28;20771;-76
2021/05/23 12:08:48;;;;;;;0.60;0.60;;;14.40;97.30;;;;;;4973703;28;20252;-75
2021/05/23 12:11:17;;;;;;;0.60;0.60;;;14.60;98.60;;;;;;4973502;28;20232;-76
2021/05/23 12:13:46;;;;;;;0.60;0.60;;;14.80;97.70;;;;;;4971170;28;20256;-76
2021/05/23 12:16:15;;;;;;;0.50;0.50;;;15.10;97.90;;;;;;4973252;28;20564;-75
2021/05/23 12:18:44;;;;;;;0.45;0.45;;;15.40;97.70;;;;;;4973668;28;20205;-76
2021/05/23 12:21:13;;;;;;;0.40;0.40;;;15.80;95.30;;;;;;4974464;28;20670;-76
2021/05/23 12:23:43;;;;;;;0.50;0.50;;;15.90;95.00;;;;;;4973135;28;20263;-76
2021/05/23 12:26:12;;;;;;;0.50;0.50;;;15.90;93.50;;;;;;4972713;28;20239;-76
2021/05/23 12:28:43;;;;;;;0.40;0.40;;;16.20;93.10;;;;;;4973290;28;20207;-76
2021/05/23 12:31:12;;;;;;;0.50;0.50;;;16.70;92.50;;;;;;4973077;28;20225;-76
2021/05/23 12:33:40;;;;;;;0.40;0.40;;;17.00;90.70;;;;;;4973225;28;20204;-76
2021/05/23 12:36:10;;;;;;;0.40;0.40;;;17.30;90.40;;;;;;4972569;28;20247;-76
2021/05/23 12:38:39;;;;;;;0.40;0.40;;;17.70;86.40;;;;;;4973014;28;20212;-76
2021/05/23 12:41:11;;;;;;;0.40;0.40;;;17.90;85.10;;;;;;4973425;28;20232;-78
2021/05/23 12:43:40;;;;;;;0.40;0.40;;;18.40;82.10;;;;;;4972613;28;20705;-78
2021/05/23 12:46:10;;;;;;;0.40;0.40;;;18.50;77.10;;;;;;4972368;28;20225;-78
2021/05/23 12:48:39;;;;;;;0.50;0.50;;;18.80;78.00;;;;;;4973065;28;20208;-78
2021/05/23 12:51:09;;;;;;;0.30;0.30;;;19.20;75.80;;;;;;4973136;28;20279;-78
2021/05/23 12:53:43;;;;;;;0.40;0.40;;;19.30;73.90;;;;;;4973371;28;20208;-78
2021/05/23 12:56:13;;;;;;;0.30;0.30;;;19.00;83.70;;;;;;4972722;28;20225;-77
2021/05/23 12:58:50;;;;;;;0.30;0.30;;;19.10;69.80;;;;;;4973330;28;20267;-77
2021/05/23 13:01:20;;;;;;;0.30;0.30;;;19.50;64.40;;;;;;4972800;28;20259;-78
2021/05/23 13:03:54;;;;;;;0.30;0.30;;;19.60;64.00;;;;;;4973019;28;20209;-70
2021/05/23 13:06:23;;;;;;;0.40;0.40;;;20.10;65.10;;;;;;4973261;28;20224;-73
2021/05/23 13:08:58;;;;;;;0.30;0.30;;;20.40;64.90;;;;;;4973870;28;20205;-76
2021/05/23 13:11:26;;;;;;;0.30;0.30;;;21.00;62.90;;;;;;4972874;28;20771;-73
2021/05/23 13:13:54;;;;;;;0.30;0.30;;;21.20;63.00;;;;;;4972693;28;20247;-76
2021/05/23 13:16:27;;;;;;;0.20;0.20;;;21.10;62.80;;;;;;4974316;28;20238;-76
2021/05/23 13:18:55;;;;;;;0.20;0.20;;;20.70;63.20;;;;;;4975525;28;20577;-77
2021/05/23 13:21:24;;;;;;;0.40;0.40;;;20.30;64.40;;;;;;4976450;28;20227;-76
2021/05/23 13:23:52;;;;;;;0.30;0.30;;;19.60;66.60;;;;;;4978205;28;20595;-73
2021/05/23 13:26:21;;;;;;;0.40;0.40;;;18.90;72.50;;;;;;4976200;28;20240;-76
2021/05/23 13:28:49;;;;;;;0.40;0.40;;;17.50;92.20;;;;;;4976525;28;20325;-75
2021/05/23 13:31:17;;;;;;;0.60;0.60;;;15.70;99.90;;;;;;4976451;28;20706;-75
2021/05/23 13:33:45;;;;;;;0.60;0.60;;;14.50;99.90;;;;;;4976354;28;20255;-76
2021/05/23 13:36:14;;;;;;;0.60;0.60;;;14.30;99.90;;;;;;4975789;28;20299;-75
2021/05/23 13:38:42;;;;;;;0.50;0.50;;;14.80;99.90;;;;;;4975920;28;20251;-76
2021/05/23 13:41:10;;;;;;;0.40;0.40;;;15.30;99.90;;;;;;4976107;28;20798;-76
2021/05/23 13:43:38;;;;;;;0.60;0.60;;;15.50;99.90;;;;;;4976166;28;20204;-76
2021/05/23 13:46:05;;;;;;;0.40;0.40;;;15.60;99.90;;;;;;4975633;28;20228;-76
2021/05/23 13:48:33;;;;;;;0.40;0.40;;;15.80;99.90;;;;;;4976143;28;20219;-77
2021/05/23 13:51:01;;;;;;;0.50;0.50;;;15.90;99.90;;;;;;4976169;28;20223;-76
2021/05/23 13:53:29;;;;;;;0.50;0.50;;;15.90;99.90;;;;;;4968081;28;20667;-76
2021/05/23 13:55:56;;;;;;;0.40;0.40;;;15.70;99.90;;;;;;4970506;28;20221;-77
2021/05/23 13:58:23;;;;;;;0.60;0.60;;;15.50;99.90;;;;;;4977881;28;20205;-78
2021/05/23 14:00:51;;;;;;;0.60;0.60;;;12.80;99.90;;;;;;4980696;28;20224;-80
2021/05/23 14:03:20;;;;;;;0.70;0.70;;;12.10;99.90;;;;;;4978101;28;20208;-80
2021/05/23 14:05:48;;;;;;;0.60;0.60;;;11.30;99.90;;;;;;4975803;28;20224;-77
2021/05/23 14:08:17;;;;;;;0.68;0.68;;;11.30;99.90;;;;;;4976308;28;20584;-79
2021/05/23 14:10:47;;;;;;;0.80;0.80;;;11.20;99.90;;;;;;4975601;28;20832;-76
2021/05/23 14:13:14;;;;;;;0.70;0.70;;;11.40;99.90;;;;;;4975835;28;20211;-78
2021/05/23 14:15:42;;;;;;;0.70;0.70;;;11.60;99.90;;;;;;4975500;28;20279;-78
2021/05/23 14:18:10;;;;;;;0.70;0.70;;;12.60;99.90;;;;;;4975837;28;20311;-79
2021/05/23 14:20:40;;;;;;;0.70;0.70;;;12.50;99.90;;;;;;4975421;28;20275;-79
2021/05/23 14:23:08;;;;;;;0.60;0.60;;;12.80;99.90;;;;;;4975706;28;20282;-76
2021/05/23 14:25:38;;;;;;;0.70;0.70;;;13.10;99.90;;;;;;4975474;28;20243;-79
2021/05/23 14:28:07;;;;;;;0.70;0.70;;;13.60;99.90;;;;;;4977692;28;20228;-76
2021/05/23 14:30:35;;;;;;;0.60;0.60;;;14.00;99.90;;;;;;4967337;28;20212;-76
2021/05/23 14:33:03;;;;;;;0.50;0.50;;;14.30;99.90;;;;;;4955606;29;20209;-75
2021/05/23 14:35:32;;;;;;;0.60;0.60;;;14.50;99.90;;;;;;4955693;29;20229;-77
2021/05/23 14:38:00;;;;;;;0.60;0.60;;;14.60;99.90;;;;;;4955920;29;20273;-76
2021/05/23 14:40:27;;;;;;;0.70;0.70;;;14.70;99.90;;;;;;4968243;28;20197;-75
2021/05/23 14:42:56;;;;;;;0.50;0.50;;;14.80;99.90;;;;;;4974815;28;20283;-75
2021/05/23 14:45:24;;;;;;;0.40;0.40;;;15.10;99.90;;;;;;4964196;28;20919;-76
2021/05/23 14:47:58;;;;;;;0.40;0.40;;;15.30;99.90;;;;;;4972292;28;20200;-76
2021/05/23 14:50:25;;;;;;;0.50;0.50;;;15.40;99.90;;;;;;4967058;28;20304;-77
2021/05/23 14:52:53;;;;;;;0.60;0.60;;;15.70;99.90;;;;;;4960733;28;20263;-75
2021/05/23 14:55:40;;;;;;;0.50;0.50;;;16.00;99.90;;;;;;4956550;28;20781;-76
2021/05/23 14:58:08;;;;;;;0.50;0.50;;;16.60;99.90;;;;;;4968821;28;20598;-75
2021/05/23 15:00:36;;;;;;;0.50;0.50;;;17.10;99.90;;;;;;4961550;28;20625;-75
2021/05/23 15:03:03;;;;;;;0.40;0.40;;;17.40;99.90;;;;;;4962026;28;20233;-78
2021/05/23 15:05:31;;;;;;;0.40;0.40;;;17.50;99.90;;;;;;4965378;28;20220;-78
2021/05/23 15:07:58;;;;;;;0.50;0.50;;;17.50;99.90;;;;;;4959445;28;20862;-77
2021/05/23 15:10:25;;;;;;;0.40;0.40;;;17.50;97.50;;;;;;4974450;28;20697;-77
2021/05/23 15:12:53;;;;;;;0.40;0.40;;;17.50;96.50;;;;;;4973504;28;20262;-76
2021/05/23 15:15:24;;;;;;;0.40;0.40;;;17.40;95.90;;;;;;4955395;28;20304;-77
2021/05/23 15:17:51;;;;;;;0.40;0.40;;;17.30;99.90;;;;;;4956034;29;20221;-77
2021/05/23 15:20:19;;;;;;;0.50;0.50;;;17.30;97.40;;;;;;4960938;28;20202;-78
2021/05/23 15:22:46;;;;;;;0.50;0.50;;;17.10;97.10;;;;;;4955789;28;20252;-77
2021/05/23 15:25:14;;;;;;;0.40;0.40;;;17.10;98.60;;;;;;4959792;28;20225;-78
2021/05/23 15:30:35;;;;;;;0.40;0.40;;;17.00;95.90;;;;;;4975568;28;20830;-79
2021/05/23 15:33:06;;;;;;;0.50;0.50;;;17.00;96.90;;;;;;4974039;28;20189;-79
2021/05/23 15:35:34;;;;;;;0.40;0.40;;;17.00;95.00;;;;;;4973982;28;20232;-78
2021/05/23 15:38:07;;;;;;;0.50;0.50;;;17.00;93.90;;;;;;4974584;28;20208;-79
2021/05/23 15:40:35;;;;;;;0.40;0.40;;;16.90;93.50;;;;;;4975976;28;20267;-79
2021/05/23 15:43:02;;;;;;;0.40;0.40;;;17.10;94.00;;;;;;4973893;28;20296;-77
2021/05/23 15:45:32;;;;;;;0.40;0.40;;;17.30;85.90;;;;;;4966745;28;20217;-78
2021/05/23 15:48:03;;;;;;;0.50;0.50;;;17.30;89.00;;;;;;4955440;29;20206;-78
2021/05/23 15:50:31;;;;;;;0.40;0.40;;;17.40;81.20;;;;;;4954491;28;20256;-79
2021/05/23 15:52:59;;;;;;;0.40;0.40;;;17.40;81.30;;;;;;4954444;28;20213;-79
2021/05/23 15:55:27;;;;;;;0.40;0.40;;;17.40;84.30;;;;;;4954458;28;20209;-79
2021/05/23 15:57:56;;;;;;;0.50;0.50;;;17.40;84.80;;;;;;4967228;28;20620;-79
2021/05/23 16:00:24;;;;;;;0.40;0.40;;;17.40;82.50;;;;;;4954547;29;20582;-78
2021/05/23 16:02:52;;;;;;;0.40;0.40;;;17.40;82.80;;;;;;4954381;29;20205;-78
2021/05/23 16:05:23;;;;;;;0.40;0.40;;;17.60;80.80;;;;;;4953913;28;20225;-78
2021/05/23 16:07:53;;;;;;;0.40;0.40;;;17.70;80.40;;;;;;4962905;28;20192;-77
2021/05/23 16:10:20;;;;;;;0.50;0.50;;;17.90;80.60;;;;;;4962630;28;20662;-77
2021/05/23 16:12:48;;;;;;;0.40;0.40;;;18.20;99.90;;;;;;4954141;29;20213;-77
2021/05/23 16:15:16;;;;;;;0.30;0.30;;;18.30;79.50;;;;;;4956298;28;20303;-78
2021/05/23 16:17:43;;;;;;;0.30;0.30;;;18.50;78.20;;;;;;4974517;28;20226;-78
2021/05/23 16:20:13;;;;;;;0.40;0.40;;;18.50;76.70;;;;;;4975694;28;20204;-79
2021/05/23 16:22:41;;;;;;;0.30;0.30;;;18.60;77.10;;;;;;4970341;28;20194;-77
2021/05/23 16:25:10;;;;;;;0.50;0.50;;;18.50;77.60;;;;;;4972725;28;20943;-77
2021/05/23 16:27:37;;;;;;;0.50;0.50;;;18.60;76.80;;;;;;4973240;28;20267;-78
2021/05/23 16:30:06;;;;;;;0.30;0.30;;;18.70;76.10;;;;;;4973469;28;20263;-78
2021/05/23 16:32:33;;;;;;;0.40;0.40;;;19.00;74.30;;;;;;4966668;28;20257;-78
2021/05/23 16:35:01;;;;;;;0.40;0.40;;;19.80;83.40;;;;;;4959027;29;20272;-76
2021/05/23 16:37:30;;;;;;;0.40;0.40;;;19.90;72.70;;;;;;4974841;28;20205;-77
2021/05/23 16:39:57;;;;;;;0.30;0.30;;;20.40;70.50;;;;;;4956889;29;20205;-77
2021/05/23 16:42:24;;;;;;;0.30;0.30;;;20.40;69.10;;;;;;4957024;29;20252;-78
2021/05/23 16:44:52;;;;;;;0.40;0.40;;;20.40;68.70;;;;;;4955545;29;20303;-77
2021/05/23 16:47:19;;;;;;;0.30;0.30;;;20.80;69.00;;;;;;4954373;29;20629;-77
2021/05/23 16:49:47;;;;;;;0.30;0.30;;;20.60;67.80;;;;;;4953308;29;20209;-75
2021/05/23 16:52:14;;;;;;;0.30;0.30;;;20.50;68.70;;;;;;4954907;28;20256;-78
2021/05/23 16:54:44;;;;;;;0.60;0.60;;;19.90;81.50;;;;;;4957246;28;20583;-76
2021/05/23 16:57:12;;;;;;;0.40;0.40;;;19.90;68.40;;;;;;4959375;28;20185;-76
2021/05/23 16:59:39;;;;;;;0.20;0.20;;;20.40;67.00;;;;;;4960602;29;20284;-77
2021/05/23 17:02:08;;;;;;;0.30;0.30;;;20.30;67.80;;;;;;4966193;28;20193;-77
2021/05/23 17:04:35;;;;;;;0.20;0.20;;;19.20;84.50;;;;;;4965476;28;20249;-77
2021/05/23 17:07:02;;;;;;;0.40;0.40;;;19.10;69.70;;;;;;4983063;28;20662;-78
2021/05/23 17:09:30;;;;;;;0.30;0.30;;;18.80;70.80;;;;;;4984272;28;20244;-76